^^
Grace C. Lehan Memorial Weather Station Historical Data
Daily Summary for February 22, 2021 Units:  Both    English   Metric
Daily Weekly Monthly Yearly
  High: Low: Average:
Temperature: 48.1 °F /  8.9 °C 29.8 °F /  -1.2 °C 36.8 °F /  2.7 °C
Dew Point: 33.5 °F /  0.8 °C 22.6 °F /  -5.2 °C 27.6 °F /  -2.4 °C
Humidity: 84% 52.2% 70%
Wind Speed: 9.1mph /  14.6km/h - 2.1mph /  3.4km/h
Wind Gust: 22mph /  35.4km/h - -
Wind- - WNW
Pressure: 29.83 in /  1010 hPa 29.55 in /  1000.6 hPa -
Precipitation: 0.00 in /  0 mm    
 
 
Tabular Data for February 22, 2021
Time Temperature Dew Point Pressure Wind Wind Speed Wind Gust Humidity Rainfall Rate (Hourly) solar
00:04 33.1 °F /  0.6 °C 25.4 °F /  -3.7 °C 29.56in /  1000.9hPa WSW 0.1mph /  0.2km/h 2mph /  3.2km/h 73% 0.00in /  0mm 0 W/m2
00:09 33.2 °F /  0.7 °C 25.6 °F /  -3.6 °C 29.56in /  1000.9hPa WSW 0.2mph /  0.3km/h 2mph /  3.2km/h 73.1% 0.00in /  0mm 0 W/m2
00:14 33.4 °F /  0.8 °C 26 °F /  -3.3 °C 29.56in /  1000.9hPa WSW 1mph /  1.6km/h 3mph /  4.8km/h 74% 0.00in /  0mm 0 W/m2
00:19 33.5 °F /  0.8 °C 26.1 °F /  -3.3 °C 29.56in /  1000.9hPa WSW 0.8mph /  1.3km/h 6mph /  9.7km/h 74% 0.00in /  0mm 0 W/m2
00:24 33.6 °F /  0.9 °C 26.2 °F /  -3.2 °C 29.56in /  1000.9hPa WSW 0.2mph /  0.3km/h 6mph /  9.7km/h 74% 0.00in /  0mm 0 W/m2
00:29 33.7 °F /  0.9 °C 26.3 °F /  -3.2 °C 29.55in /  1000.6hPa Calm   6mph /  9.7km/h 74% 0.00in /  0mm 0 W/m2
00:34 33.7 °F /  0.9 °C 26.3 °F /  -3.2 °C 29.55in /  1000.6hPa WSW 0.4mph /  0.6km/h 6mph /  9.7km/h 74% 0.00in /  0mm 0 W/m2
00:39 33.7 °F /  0.9 °C 26.3 °F /  -3.2 °C 29.55in /  1000.6hPa Calm   4mph /  6.4km/h 74% 0.00in /  0mm 0 W/m2
00:44 33.6 °F /  0.9 °C 26.3 °F /  -3.2 °C 29.55in /  1000.6hPa Calm   4mph /  6.4km/h 74% 0.00in /  0mm 0 W/m2
00:49 33.6 °F /  0.9 °C 26.2 °F /  -3.2 °C 29.55in /  1000.6hPa Calm   4mph /  6.4km/h 74% 0.00in /  0mm 0 W/m2
00:54 33.5 °F /  0.8 °C 26.2 °F /  -3.2 °C 29.55in /  1000.6hPa Calm   4mph /  6.4km/h 74.4% 0.00in /  0mm 0 W/m2
00:59 33.4 °F /  0.8 °C 26.3 °F /  -3.2 °C 29.55in /  1000.6hPa Calm   4mph /  6.4km/h 75% 0.00in /  0mm 0 W/m2
01:04 33.3 °F /  0.7 °C 26.3 °F /  -3.2 °C 29.55in /  1000.6hPa Calm   4mph /  6.4km/h 75% 0.00in /  0mm 0 W/m2
01:09 33.2 °F /  0.7 °C 26.2 °F /  -3.2 °C 29.55in /  1000.6hPa Calm     75% 0.00in /  0mm 0 W/m2
01:14 33.1 °F /  0.6 °C 26 °F /  -3.3 °C 29.56in /  1000.9hPa Calm     75% 0.00in /  0mm 0 W/m2
01:19 32.9 °F /  0.5 °C 25.9 °F /  -3.4 °C 29.56in /  1000.9hPa Calm     75% 0.00in /  0mm 0 W/m2
01:24 32.8 °F /  0.4 °C 25.8 °F /  -3.4 °C 29.55in /  1000.6hPa Calm     75.2% 0.00in /  0mm 0 W/m2
01:29 32.7 °F /  0.4 °C 26 °F /  -3.3 °C 29.55in /  1000.6hPa Calm     76% 0.00in /  0mm 0 W/m2
01:34 32.7 °F /  0.4 °C 26 °F /  -3.3 °C 29.55in /  1000.6hPa Calm     76% 0.00in /  0mm 0 W/m2
01:39 32.7 °F /  0.4 °C 26 °F /  -3.3 °C 29.56in /  1000.9hPa Calm     76% 0.00in /  0mm 0 W/m2
01:44 32.6 °F /  0.3 °C 25.9 °F /  -3.4 °C 29.56in /  1000.9hPa Calm     76% 0.00in /  0mm 0 W/m2
01:49 32.4 °F /  0.2 °C 25.7 °F /  -3.5 °C 29.56in /  1000.9hPa Calm     76.1% 0.00in /  0mm 0 W/m2
01:54 32.2 °F /  0.1 °C 25.8 °F /  -3.4 °C 29.56in /  1000.9hPa Calm     77% 0.00in /  0mm 0 W/m2
01:59 32 °F /  0 °C 25.8 °F /  -3.4 °C 29.56in /  1000.9hPa Calm     77.4% 0.00in /  0mm 0 W/m2
02:04 32 °F /  0 °C 25.9 °F /  -3.4 °C 29.56in /  1000.9hPa Calm     78% 0.00in /  0mm 0 W/m2
02:09 31.9 °F /  -0.1 °C 25.8 °F /  -3.4 °C 29.56in /  1000.9hPa Calm     78% 0.00in /  0mm 0 W/m2
02:14 31.9 °F /  -0.1 °C 26.2 °F /  -3.2 °C 29.56in /  1000.9hPa Calm     79% 0.00in /  0mm 0 W/m2
02:19 32 °F /  0 °C 26.2 °F /  -3.2 °C 29.56in /  1000.9hPa Calm     79% 0.00in /  0mm 0 W/m2
02:24 32 °F /  0 °C 26.2 °F /  -3.2 °C 29.56in /  1000.9hPa Calm     79% 0.00in /  0mm 0 W/m2
02:29 32 °F /  0 °C 26.4 °F /  -3.1 °C 29.56in /  1000.9hPa Calm     79.6% 0.00in /  0mm 0 W/m2
02:34 32.1 °F /  0.1 °C 26.6 °F /  -3 °C 29.57in /  1001.2hPa Calm     80% 0.00in /  0mm 0 W/m2
02:39 32.2 °F /  0.1 °C 26.6 °F /  -3 °C 29.57in /  1001.2hPa WSW 0.1mph /  0.2km/h 2mph /  3.2km/h 79.7% 0.00in /  0mm 0 W/m2
02:44 32.2 °F /  0.1 °C 26.5 °F /  -3.1 °C 29.57in /  1001.2hPa WSW 0.1mph /  0.2km/h 3mph /  4.8km/h 79.3% 0.00in /  0mm 0 W/m2
02:49 32.2 °F /  0.1 °C 26.7 °F /  -2.9 °C 29.57in /  1001.2hPa Calm   3mph /  4.8km/h 80% 0.00in /  0mm 0 W/m2
02:54 32.2 °F /  0.1 °C 26.7 °F /  -2.9 °C 29.57in /  1001.2hPa Calm   3mph /  4.8km/h 80% 0.00in /  0mm 0 W/m2
02:59 32.2 °F /  0.1 °C 26.7 °F /  -2.9 °C 29.56in /  1000.9hPa Calm   3mph /  4.8km/h 80% 0.00in /  0mm 0 W/m2
03:04 32.1 °F /  0.1 °C 26.6 °F /  -3 °C 29.56in /  1000.9hPa Calm   3mph /  4.8km/h 80% 0.00in /  0mm 0 W/m2
03:09 32.1 °F /  0.1 °C 26.9 °F /  -2.8 °C 29.56in /  1000.9hPa Calm     80.7% 0.00in /  0mm 0 W/m2
03:14 32.1 °F /  0.1 °C 26.9 °F /  -2.8 °C 29.56in /  1000.9hPa Calm     81% 0.00in /  0mm 0 W/m2
03:19 32.1 °F /  0.1 °C 27 °F /  -2.8 °C 29.56in /  1000.9hPa Calm     81% 0.00in /  0mm 0 W/m2
03:24 32.2 °F /  0.1 °C 27.1 °F /  -2.7 °C 29.56in /  1000.9hPa Calm     81% 0.00in /  0mm 0 W/m2
03:29 32.3 °F /  0.2 °C 27.1 °F /  -2.7 °C 29.56in /  1000.9hPa Calm     81% 0.00in /  0mm 0 W/m2
03:34 32.4 °F /  0.2 °C 27.1 °F /  -2.7 °C 29.56in /  1000.9hPa Calm     80.7% 0.00in /  0mm 0 W/m2
03:39 32.4 °F /  0.2 °C 27 °F /  -2.8 °C 29.56in /  1000.9hPa Calm     80.2% 0.00in /  0mm 0 W/m2
03:44 32.4 °F /  0.2 °C 26.9 °F /  -2.8 °C 29.56in /  1000.9hPa Calm     80% 0.00in /  0mm 0 W/m2
03:49 32.4 °F /  0.2 °C 26.9 °F /  -2.8 °C 29.56in /  1000.9hPa Calm     80% 0.00in /  0mm 0 W/m2
03:54 32.4 °F /  0.2 °C 26.9 °F /  -2.8 °C 29.56in /  1000.9hPa Calm     80% 0.00in /  0mm 0 W/m2
03:59 32.3 °F /  0.2 °C 26.9 °F /  -2.8 °C 29.56in /  1000.9hPa Calm     80% 0.00in /  0mm 0 W/m2
04:04 32.2 °F /  0.1 °C 26.7 °F /  -2.9 °C 29.56in /  1000.9hPa Calm     80% 0.00in /  0mm 0 W/m2
04:09 32.1 °F /  0.1 °C 26.7 °F /  -2.9 °C 29.56in /  1000.9hPa Calm     80% 0.00in /  0mm 0 W/m2
04:14 32.1 °F /  0.1 °C 26.8 °F /  -2.9 °C 29.56in /  1000.9hPa Calm     80.4% 0.00in /  0mm 0 W/m2
04:19 32.2 °F /  0.1 °C 27 °F /  -2.8 °C 29.56in /  1000.9hPa Calm     80.8% 0.00in /  0mm 0 W/m2
04:24 32.3 °F /  0.2 °C 26.8 °F /  -2.9 °C 29.56in /  1000.9hPa Calm     80% 0.00in /  0mm 0 W/m2
04:29 32.3 °F /  0.2 °C 26.8 °F /  -2.9 °C 29.56in /  1000.9hPa Calm     80% 0.00in /  0mm 0 W/m2
04:34 32.3 °F /  0.2 °C 26.8 °F /  -2.9 °C 29.56in /  1000.9hPa Calm     80% 0.00in /  0mm 0 W/m2
04:39 32.2 °F /  0.1 °C 26.7 °F /  -2.9 °C 29.56in /  1000.9hPa Calm     80% 0.00in /  0mm 0 W/m2
04:44 32.1 °F /  0.1 °C 26.6 °F /  -3 °C 29.56in /  1000.9hPa Calm     80% 0.00in /  0mm 0 W/m2
04:49 32 °F /  0 °C 26.5 °F /  -3.1 °C 29.56in /  1000.9hPa Calm     80% 0.00in /  0mm 0 W/m2
04:54 32 °F /  0 °C 26.5 °F /  -3.1 °C 29.56in /  1000.9hPa Calm     80% 0.00in /  0mm 0 W/m2
04:59 31.8 °F /  -0.1 °C 26.3 °F /  -3.2 °C 29.56in /  1000.9hPa Calm     80% 0.00in /  0mm 0 W/m2
05:04 31.6 °F /  -0.2 °C 26.2 °F /  -3.2 °C 29.56in /  1000.9hPa Calm     80.3% 0.00in /  0mm 0 W/m2
05:09 31.5 °F /  -0.3 °C 26.3 °F /  -3.2 °C 29.56in /  1000.9hPa Calm     81% 0.00in /  0mm 0 W/m2
05:14 31.3 °F /  -0.4 °C 26.2 °F /  -3.2 °C 29.56in /  1000.9hPa Calm     81% 0.00in /  0mm 0 W/m2
05:19 31.2 °F /  -0.4 °C 26 °F /  -3.3 °C 29.56in /  1000.9hPa Calm     81% 0.00in /  0mm 0 W/m2
05:24 31.1 °F /  -0.5 °C 25.9 °F /  -3.4 °C 29.57in /  1001.2hPa Calm     81% 0.00in /  0mm 0 W/m2
05:29 30.9 °F /  -0.6 °C 25.8 °F /  -3.4 °C 29.57in /  1001.2hPa Calm     81.2% 0.00in /  0mm 0 W/m2
05:34 30.7 °F /  -0.7 °C 25.8 °F /  -3.4 °C 29.57in /  1001.2hPa Calm     81.8% 0.00in /  0mm 0 W/m2
05:39 30.5 °F /  -0.8 °C 25.7 °F /  -3.5 °C 29.57in /  1001.2hPa Calm     82% 0.00in /  0mm 0 W/m2
05:44 30.3 °F /  -0.9 °C 25.7 °F /  -3.5 °C 29.57in /  1001.2hPa Calm     82.8% 0.00in /  0mm 0 W/m2
05:49 30.1 °F /  -1.1 °C 25.6 °F /  -3.6 °C 29.57in /  1001.2hPa Calm     83.4% 0.00in /  0mm 0 W/m2
05:54 30.1 °F /  -1.1 °C 25.9 °F /  -3.4 °C 29.57in /  1001.2hPa Calm     84% 0.00in /  0mm 0 W/m2
05:59 30.1 °F /  -1.1 °C 25.9 °F /  -3.4 °C 29.57in /  1001.2hPa Calm     84% 0.00in /  0mm 0 W/m2
06:04 30.1 °F /  -1.1 °C 25.8 °F /  -3.4 °C 29.57in /  1001.2hPa Calm     84% 0.00in /  0mm 0 W/m2
06:09 30 °F /  -1.1 °C 25.4 °F /  -3.7 °C 29.57in /  1001.2hPa Calm     83% 0.00in /  0mm 0 W/m2
06:14 29.9 °F /  -1.2 °C 25.6 °F /  -3.6 °C 29.58in /  1001.6hPa Calm     83.8% 0.00in /  0mm 0 W/m2
06:19 29.8 °F /  -1.2 °C 25.6 °F /  -3.6 °C 29.57in /  1001.2hPa Calm     84% 0.00in /  0mm 0 W/m2
06:24 29.8 °F /  -1.2 °C 25.6 °F /  -3.6 °C 29.57in /  1001.2hPa Calm     84% 0.00in /  0mm 0 W/m2
06:29 29.8 °F /  -1.2 °C 25.6 °F /  -3.6 °C 29.57in /  1001.2hPa Calm     84% 0.00in /  0mm 0 W/m2
06:34 29.9 °F /  -1.2 °C 25.7 °F /  -3.5 °C 29.57in /  1001.2hPa Calm     84% 0.00in /  0mm 0 W/m2
06:39 30.1 °F /  -1.1 °C 25.8 °F /  -3.4 °C 29.57in /  1001.2hPa Calm     84% 0.00in /  0mm 0 W/m2
06:44 30.1 °F /  -1.1 °C 25.8 °F /  -3.4 °C 29.57in /  1001.2hPa Calm     83.8% 0.00in /  0mm 0 W/m2
06:49 30.2 °F /  -1 °C 25.9 °F /  -3.4 °C 29.57in /  1001.2hPa Calm     83.7% 0.00in /  0mm 0 W/m2
06:54 30.2 °F /  -1 °C 25.7 °F /  -3.5 °C 29.57in /  1001.2hPa Calm     83% 0.00in /  0mm 0 W/m2
06:59 30.2 °F /  -1 °C 25.7 °F /  -3.5 °C 29.58in /  1001.6hPa Calm     83% 0.00in /  0mm 0 W/m2
07:04 30.2 °F /  -1 °C 25.8 °F /  -3.4 °C 29.58in /  1001.6hPa WSW 0.1mph /  0.2km/h 2mph /  3.2km/h 83.4% 0.00in /  0mm 0 W/m2
07:09 30.2 °F /  -1 °C 25.9 °F /  -3.4 °C 29.58in /  1001.6hPa Calm   2mph /  3.2km/h 83.8% 0.00in /  0mm 0 W/m2
07:14 30.3 °F /  -0.9 °C 26 °F /  -3.3 °C 29.58in /  1001.6hPa Calm   2mph /  3.2km/h 83.7% 0.00in /  0mm 0 W/m2
07:19 30.5 °F /  -0.8 °C 26.2 °F /  -3.2 °C 29.58in /  1001.6hPa WSW 0.5mph /  0.8km/h 6mph /  9.7km/h 84% 0.00in /  0mm 5 W/m2
07:24 30.7 °F /  -0.7 °C 26.5 °F /  -3.1 °C 29.58in /  1001.6hPa WSW 0.2mph /  0.3km/h 6mph /  9.7km/h 84% 0.00in /  0mm 9 W/m2
07:29 31 °F /  -0.6 °C 26.8 °F /  -2.9 °C 29.58in /  1001.6hPa WSW 0.1mph /  0.2km/h 6mph /  9.7km/h 83.9% 0.00in /  0mm 16 W/m2
07:34 31.3 °F /  -0.4 °C 26.7 °F /  -2.9 °C 29.58in /  1001.6hPa Calm   6mph /  9.7km/h 83% 0.00in /  0mm 21 W/m2
07:39 31.5 °F /  -0.3 °C 26.9 °F /  -2.8 °C 29.59in /  1001.9hPa Calm   1mph /  1.6km/h 83% 0.00in /  0mm 26 W/m2
07:44 31.6 °F /  -0.2 °C 27.1 °F /  -2.7 °C 29.59in /  1001.9hPa Calm   1mph /  1.6km/h 83% 0.00in /  0mm 26 W/m2
07:49 31.8 °F /  -0.1 °C 27.2 °F /  -2.7 °C 29.59in /  1001.9hPa Calm   1mph /  1.6km/h 83% 0.00in /  0mm 28 W/m2
07:54 32 °F /  0 °C 27.4 °F /  -2.6 °C 29.59in /  1001.9hPa Calm   1mph /  1.6km/h 83% 0.00in /  0mm 25 W/m2
07:59 32.2 °F /  0.1 °C 27.5 °F /  -2.5 °C 29.59in /  1001.9hPa Calm   1mph /  1.6km/h 82.6% 0.00in /  0mm 28 W/m2
08:00 32.3 °F /  0.2 °C 27.4 °F /  -2.6 °C 29.59in /  1001.9hPa Calm   1mph /  1.6km/h 82% 0.00in /  0mm 28 W/m2
08:09 32.5 °F /  0.3 °C 27.7 °F /  -2.4 °C 29.60in /  1002.3hPa WSW 0.2mph /  0.3km/h 4mph /  6.4km/h 82% 0.00in /  0mm 37 W/m2
08:14 32.8 °F /  0.4 °C 27.9 °F /  -2.3 °C 29.60in /  1002.3hPa Calm   4mph /  6.4km/h 81.8% 0.00in /  0mm 46 W/m2
08:19 33.1 °F /  0.6 °C 28 °F /  -2.2 °C 29.60in /  1002.3hPa WSW 0.5mph /  0.8km/h 5mph /  8km/h 81.1% 0.00in /  0mm 46 W/m2
08:24 33.5 °F /  0.8 °C 28.3 °F /  -2.1 °C 29.60in /  1002.3hPa WSW 1mph /  1.6km/h 6mph /  9.7km/h 81% 0.00in /  0mm 84 W/m2
08:29 34.1 °F /  1.2 °C 28.9 °F /  -1.7 °C 29.60in /  1002.3hPa West 1.2mph /  1.9km/h 6mph /  9.7km/h 81% 0.00in /  0mm 158 W/m2
08:34 34.9 °F /  1.6 °C 29.6 °F /  -1.3 °C 29.61in /  1002.6hPa West 0.9mph /  1.4km/h 6mph /  9.7km/h 80.7% 0.00in /  0mm 121 W/m2
08:39 35.8 °F /  2.1 °C 29.8 °F /  -1.2 °C 29.61in /  1002.6hPa West 0.6mph /  1km/h 5mph /  8km/h 78.7% 0.00in /  0mm 56 W/m2
08:44 36.2 °F /  2.3 °C 29.5 °F /  -1.4 °C 29.61in /  1002.6hPa WSW 0.7mph /  1.1km/h 5mph /  8km/h 76.5% 0.00in /  0mm 79 W/m2
08:49 36.5 °F /  2.5 °C 29.4 °F /  -1.4 °C 29.62in /  1002.9hPa WNW 1.1mph /  1.8km/h 6mph /  9.7km/h 75.1% 0.00in /  0mm 171 W/m2
08:54 36.7 °F /  2.6 °C 29.6 °F /  -1.3 °C 29.62in /  1002.9hPa West 0.2mph /  0.3km/h 6mph /  9.7km/h 75% 0.00in /  0mm 171 W/m2
08:59 37.1 °F /  2.8 °C 29.5 °F /  -1.4 °C 29.62in /  1002.9hPa West 0.2mph /  0.3km/h 6mph /  9.7km/h 74% 0.00in /  0mm 93 W/m2
09:04 37.3 °F /  2.9 °C 29.6 °F /  -1.3 °C 29.62in /  1002.9hPa Calm   6mph /  9.7km/h 73.5% 0.00in /  0mm 188 W/m2
09:09 37.6 °F /  3.1 °C 29.9 °F /  -1.2 °C 29.62in /  1002.9hPa Calm   1mph /  1.6km/h 73.7% 0.00in /  0mm 220 W/m2
09:14 37.8 °F /  3.2 °C 30 °F /  -1.1 °C 29.62in /  1002.9hPa WSW 0.2mph /  0.3km/h 4mph /  6.4km/h 73% 0.00in /  0mm 239 W/m2
09:19 38 °F /  3.3 °C 30 °F /  -1.1 °C 29.63in /  1003.3hPa WSW 0.2mph /  0.3km/h 4mph /  6.4km/h 72.7% 0.00in /  0mm 239 W/m2
09:24 38.4 °F /  3.6 °C 30.6 °F /  -0.8 °C 29.63in /  1003.3hPa Calm   4mph /  6.4km/h 73.2% 0.00in /  0mm 281 W/m2
09:29 39 °F /  3.9 °C 31 °F /  -0.6 °C 29.63in /  1003.3hPa Calm   4mph /  6.4km/h 72.8% 0.00in /  0mm 197 W/m2
09:34 39.5 °F /  4.2 °C 30.8 °F /  -0.7 °C 29.63in /  1003.3hPa WSW 0.8mph /  1.3km/h 5mph /  8km/h 70.9% 0.00in /  0mm 299 W/m2
09:39 40 °F /  4.4 °C 30.9 °F /  -0.6 °C 29.63in /  1003.3hPa WSW 1.3mph /  2.1km/h 8mph /  12.9km/h 69.8% 0.00in /  0mm 244 W/m2
09:44 40.4 °F /  4.7 °C 30.9 °F /  -0.6 °C 29.63in /  1003.3hPa WSW 0.1mph /  0.2km/h 8mph /  12.9km/h 68.5% 0.00in /  0mm 253 W/m2
09:49 40.8 °F /  4.9 °C 31.2 °F /  -0.4 °C 29.63in /  1003.3hPa WSW 0.5mph /  0.8km/h 8mph /  12.9km/h 68.3% 0.00in /  0mm 304 W/m2
09:54 41.4 °F /  5.2 °C 31.5 °F /  -0.3 °C 29.63in /  1003.3hPa WSW 0.1mph /  0.2km/h 8mph /  12.9km/h 67.6% 0.00in /  0mm 294 W/m2
09:59 41.9 °F /  5.5 °C 31.6 °F /  -0.2 °C 29.63in /  1003.3hPa WSW 0.5mph /  0.8km/h 8mph /  12.9km/h 66.4% 0.00in /  0mm 178 W/m2
10:04 42.2 °F /  5.7 °C 31.3 °F /  -0.4 °C 29.63in /  1003.3hPa WSW 0.1mph /  0.2km/h 8mph /  12.9km/h 65% 0.00in /  0mm 95 W/m2
10:09 42.2 °F /  5.7 °C 30.9 °F /  -0.6 °C 29.63in /  1003.3hPa WNW 1.1mph /  1.8km/h 6mph /  9.7km/h 64% 0.00in /  0mm 200 W/m2
10:14 42.2 °F /  5.7 °C 31 °F /  -0.6 °C 29.63in /  1003.3hPa WNW 0.4mph /  0.6km/h 6mph /  9.7km/h 64.3% 0.00in /  0mm 232 W/m2
10:19 42.3 °F /  5.7 °C 31.2 °F /  -0.4 °C 29.63in /  1003.3hPa West 0.2mph /  0.3km/h 6mph /  9.7km/h 64.6% 0.00in /  0mm 244 W/m2
10:24 42.4 °F /  5.8 °C 31.5 °F /  -0.3 °C 29.62in /  1002.9hPa West 0.7mph /  1.1km/h 7mph /  11.3km/h 65% 0.00in /  0mm 287 W/m2
10:29 42.9 °F /  6.1 °C 31.7 °F /  -0.2 °C 29.62in /  1002.9hPa WNW 2.2mph /  3.5km/h 14mph /  22.5km/h 64.3% 0.00in /  0mm 311 W/m2
10:34 43.6 °F /  6.4 °C 31.6 °F /  -0.2 °C 29.62in /  1002.9hPa NW 4.6mph /  7.4km/h 14mph /  22.5km/h 62.5% 0.00in /  0mm 369 W/m2
10:39 44.3 °F /  6.8 °C 31.9 °F /  -0.1 °C 29.62in /  1002.9hPa WNW 2.9mph /  4.7km/h 10mph /  16.1km/h 61.3% 0.00in /  0mm 424 W/m2
10:44 45 °F /  7.2 °C 32.4 °F /  0.2 °C 29.62in /  1002.9hPa WSW 1.5mph /  2.4km/h 10mph /  16.1km/h 60.8% 0.00in /  0mm 490 W/m2
10:49 45.9 °F /  7.7 °C 32.2 °F /  0.1 °C 29.62in /  1002.9hPa West 2.1mph /  3.4km/h 10mph /  16.1km/h 58.5% 0.00in /  0mm 501 W/m2
10:54 46.5 °F /  8.1 °C 33 °F /  0.6 °C 29.62in /  1002.9hPa Calm   10mph /  16.1km/h 59% 0.00in /  0mm 513 W/m2
10:59 47.4 °F /  8.6 °C 33.5 °F /  0.8 °C 29.62in /  1002.9hPa West 0.3mph /  0.5km/h 10mph /  16.1km/h 58.2% 0.00in /  0mm 446 W/m2
11:04 48 °F /  8.9 °C 32.8 °F /  0.4 °C 29.62in /  1002.9hPa West 2mph /  3.2km/h 10mph /  16.1km/h 55.5% 0.00in /  0mm 446 W/m2
11:09 48.1 °F /  8.9 °C 31.6 °F /  -0.2 °C 29.62in /  1002.9hPa West 3.9mph /  6.3km/h 15mph /  24.1km/h 52.7% 0.00in /  0mm 397 W/m2
11:14 47.6 °F /  8.7 °C 31.2 °F /  -0.4 °C 29.62in /  1002.9hPa West 4.1mph /  6.6km/h 15mph /  24.1km/h 52.7% 0.00in /  0mm 225 W/m2
11:19 46.9 °F /  8.3 °C 30.3 °F /  -0.9 °C 29.62in /  1002.9hPa WNW 7.8mph /  12.6km/h 18mph /  29km/h 52.2% 0.00in /  0mm 169 W/m2
11:24 45.9 °F /  7.7 °C 29.9 °F /  -1.2 °C 29.62in /  1002.9hPa WNW 6.7mph /  10.8km/h 18mph /  29km/h 53.2% 0.00in /  0mm 264 W/m2
11:29 45.3 °F /  7.4 °C 30.1 °F /  -1.1 °C 29.62in /  1002.9hPa West 4.7mph /  7.6km/h 18mph /  29km/h 55% 0.00in /  0mm 209 W/m2
11:34 45.1 °F /  7.3 °C 29.9 °F /  -1.2 °C 29.62in /  1002.9hPa West 5mph /  8km/h 18mph /  29km/h 55% 0.00in /  0mm 107 W/m2
11:39 44.7 °F /  7.1 °C 29.6 °F /  -1.3 °C 29.61in /  1002.6hPa West 3.8mph /  6.1km/h 14mph /  22.5km/h 55.2% 0.00in /  0mm 79 W/m2
11:44 44.2 °F /  6.8 °C 29.2 °F /  -1.6 °C 29.62in /  1002.9hPa WNW 4.2mph /  6.8km/h 14mph /  22.5km/h 55.5% 0.00in /  0mm 204 W/m2
11:49 43.6 °F /  6.4 °C 29 °F /  -1.7 °C 29.62in /  1002.9hPa WNW 7.2mph /  11.6km/h 14mph /  22.5km/h 56% 0.00in /  0mm 158 W/m2
11:54 43.2 °F /  6.2 °C 28.4 °F /  -2 °C 29.61in /  1002.6hPa WNW 7.7mph /  12.4km/h 20mph /  32.2km/h 55.5% 0.00in /  0mm 171 W/m2
11:59 43 °F /  6.1 °C 28.4 °F /  -2 °C 29.61in /  1002.6hPa WNW 6.6mph /  10.6km/h 20mph /  32.2km/h 56% 0.00in /  0mm 232 W/m2
12:00 43 °F /  6.1 °C 28.4 °F /  -2 °C 29.61in /  1002.6hPa WNW 7mph /  11.3km/h 20mph /  32.2km/h 56% 0.00in /  0mm 128 W/m2
12:09 43 °F /  6.1 °C 28.1 °F /  -2.2 °C 29.62in /  1002.9hPa WNW 6.8mph /  10.9km/h 14mph /  22.5km/h 55.3% 0.00in /  0mm 91 W/m2
12:14 42.9 °F /  6.1 °C 28.1 °F /  -2.2 °C 29.61in /  1002.6hPa WNW 4mph /  6.4km/h 14mph /  22.5km/h 55.6% 0.00in /  0mm 98 W/m2
12:19 42.8 °F /  6 °C 28.4 °F /  -2 °C 29.61in /  1002.6hPa WNW 6.8mph /  10.9km/h 15mph /  24.1km/h 56.3% 0.00in /  0mm 98 W/m2
12:24 42.8 °F /  6 °C 28.5 °F /  -1.9 °C 29.61in /  1002.6hPa WNW 2.9mph /  4.7km/h 15mph /  24.1km/h 56.7% 0.00in /  0mm 167 W/m2
12:29 42.9 °F /  6.1 °C 28.8 °F /  -1.8 °C 29.61in /  1002.6hPa WNW 2.3mph /  3.7km/h 15mph /  24.1km/h 57% 0.00in /  0mm 193 W/m2
12:34 43.1 °F /  6.2 °C 28.7 °F /  -1.8 °C 29.61in /  1002.6hPa WNW 6.3mph /  10.1km/h 16mph /  25.7km/h 56.3% 0.00in /  0mm 193 W/m2
12:39 43.3 °F /  6.3 °C 28.4 °F /  -2 °C 29.61in /  1002.6hPa NW 5.5mph /  8.9km/h 16mph /  25.7km/h 55.4% 0.00in /  0mm 134 W/m2
12:44 43.3 °F /  6.3 °C 28.5 °F /  -1.9 °C 29.61in /  1002.6hPa NW 3.7mph /  6km/h 16mph /  25.7km/h 55.7% 0.00in /  0mm 149 W/m2
12:49 43.3 °F /  6.3 °C 28.7 °F /  -1.8 °C 29.61in /  1002.6hPa WNW 4mph /  6.4km/h 17mph /  27.4km/h 56% 0.00in /  0mm 153 W/m2
12:54 43.4 °F /  6.3 °C 28.8 °F /  -1.8 °C 29.61in /  1002.6hPa West 5.9mph /  9.5km/h 17mph /  27.4km/h 56% 0.00in /  0mm 130 W/m2
12:59 43.3 °F /  6.3 °C 28.5 °F /  -1.9 °C 29.62in /  1002.9hPa West 1.4mph /  2.3km/h 17mph /  27.4km/h 55.7% 0.00in /  0mm 127 W/m2
13:04 43.2 °F /  6.2 °C 28.6 °F /  -1.9 °C 29.62in /  1002.9hPa West 5mph /  8km/h 17mph /  27.4km/h 56% 0.00in /  0mm 127 W/m2
13:09 43.1 °F /  6.2 °C 28.1 °F /  -2.2 °C 29.62in /  1002.9hPa West 4.9mph /  7.9km/h 15mph /  24.1km/h 55% 0.00in /  0mm 77 W/m2
13:14 42.9 °F /  6.1 °C 27.9 °F /  -2.3 °C 29.62in /  1002.9hPa West 7.8mph /  12.6km/h 19mph /  30.6km/h 55.2% 0.00in /  0mm 49 W/m2
13:19 42.6 °F /  5.9 °C 27.8 °F /  -2.3 °C 29.62in /  1002.9hPa West 3mph /  4.8km/h 19mph /  30.6km/h 55.6% 0.00in /  0mm 63 W/m2
13:24 42.3 °F /  5.7 °C 27.8 °F /  -2.3 °C 29.62in /  1002.9hPa WNW 5.2mph /  8.4km/h 19mph /  30.6km/h 56.1% 0.00in /  0mm 70 W/m2
13:29 42.1 °F /  5.6 °C 28 °F /  -2.2 °C 29.62in /  1002.9hPa West 4.7mph /  7.6km/h 19mph /  30.6km/h 57% 0.00in /  0mm 69 W/m2
13:34 41.9 °F /  5.5 °C 27.8 °F /  -2.3 °C 29.63in /  1003.3hPa WNW 4.9mph /  7.9km/h 19mph /  30.6km/h 57% 0.00in /  0mm 72 W/m2
13:39 41.9 °F /  5.5 °C 27.9 °F /  -2.3 °C 29.63in /  1003.3hPa WNW 1.6mph /  2.6km/h 14mph /  22.5km/h 57.3% 0.00in /  0mm 88 W/m2
13:44 41.9 °F /  5.5 °C 28 °F /  -2.2 °C 29.62in /  1002.9hPa West 3.3mph /  5.3km/h 14mph /  22.5km/h 57.5% 0.00in /  0mm 107 W/m2
13:49 41.9 °F /  5.5 °C 28.2 °F /  -2.1 °C 29.62in /  1002.9hPa West 0.9mph /  1.4km/h 14mph /  22.5km/h 57.9% 0.00in /  0mm 111 W/m2
13:54 42 °F /  5.6 °C 27.9 °F /  -2.3 °C 29.63in /  1003.3hPa West 6.1mph /  9.8km/h 14mph /  22.5km/h 57.1% 0.00in /  0mm 141 W/m2
13:59 42.1 °F /  5.6 °C 27.8 °F /  -2.3 °C 29.63in /  1003.3hPa WNW 3.1mph /  5km/h 14mph /  22.5km/h 56.5% 0.00in /  0mm 144 W/m2
14:04 42.3 °F /  5.7 °C 27.8 °F /  -2.3 °C 29.63in /  1003.3hPa West 6.8mph /  10.9km/h 20mph /  32.2km/h 56.2% 0.00in /  0mm 146 W/m2
14:09 42.4 °F /  5.8 °C 27.4 °F /  -2.6 °C 29.63in /  1003.3hPa WNW 5.4mph /  8.7km/h 20mph /  32.2km/h 55% 0.00in /  0mm 144 W/m2
14:14 42.5 °F /  5.8 °C 27.5 °F /  -2.5 °C 29.64in /  1003.6hPa WNW 4.8mph /  7.7km/h 20mph /  32.2km/h 55% 0.00in /  0mm 142 W/m2
14:19 42.7 °F /  5.9 °C 27.6 °F /  -2.4 °C 29.63in /  1003.3hPa West 4.7mph /  7.6km/h 20mph /  32.2km/h 55% 0.00in /  0mm 139 W/m2
14:24 42.8 °F /  6 °C 27.7 °F /  -2.4 °C 29.64in /  1003.6hPa West 4.1mph /  6.6km/h 20mph /  32.2km/h 55% 0.00in /  0mm 125 W/m2
14:29 42.8 °F /  6 °C 27.8 °F /  -2.3 °C 29.64in /  1003.6hPa WNW 2.1mph /  3.4km/h 20mph /  32.2km/h 55.1% 0.00in /  0mm 121 W/m2
14:34 42.9 °F /  6.1 °C 28.2 °F /  -2.1 °C 29.64in /  1003.6hPa WSW 2.5mph /  4km/h 20mph /  32.2km/h 55.8% 0.00in /  0mm 123 W/m2
14:39 42.9 °F /  6.1 °C 28.2 °F /  -2.1 °C 29.64in /  1003.6hPa West 1mph /  1.6km/h 11mph /  17.7km/h 55.7% 0.00in /  0mm 127 W/m2
14:44 43 °F /  6.1 °C 28.3 °F /  -2.1 °C 29.64in /  1003.6hPa WSW 3.1mph /  5km/h 12mph /  19.3km/h 55.8% 0.00in /  0mm 135 W/m2
14:49 43.1 °F /  6.2 °C 28.3 °F /  -2.1 °C 29.64in /  1003.6hPa West 2.3mph /  3.7km/h 12mph /  19.3km/h 55.5% 0.00in /  0mm 134 W/m2
14:54 43.1 °F /  6.2 °C 28.4 °F /  -2 °C 29.64in /  1003.6hPa WSW 0.8mph /  1.3km/h 12mph /  19.3km/h 55.8% 0.00in /  0mm 114 W/m2
14:59 43.2 °F /  6.2 °C 28.5 °F /  -1.9 °C 29.64in /  1003.6hPa WNW 2.5mph /  4km/h 12mph /  19.3km/h 55.9% 0.00in /  0mm 86 W/m2
15:04 43.2 °F /  6.2 °C 28.1 °F /  -2.2 °C 29.65in /  1003.9hPa WNW 5.4mph /  8.7km/h 12mph /  19.3km/h 55% 0.00in /  0mm 76 W/m2
15:09 42.9 °F /  6.1 °C 27.9 °F /  -2.3 °C 29.65in /  1003.9hPa WNW 3.8mph /  6.1km/h 13mph /  20.9km/h 55% 0.00in /  0mm 76 W/m2
15:14 42.8 °F /  6 °C 27.9 °F /  -2.3 °C 29.65in /  1003.9hPa WNW 5.1mph /  8.2km/h 14mph /  22.5km/h 55.3% 0.00in /  0mm 81 W/m2
15:19 42.6 °F /  5.9 °C 28 °F /  -2.2 °C 29.65in /  1003.9hPa WNW 3.5mph /  5.6km/h 14mph /  22.5km/h 56% 0.00in /  0mm 84 W/m2
15:24 42.5 °F /  5.8 °C 27.9 °F /  -2.3 °C 29.65in /  1003.9hPa WNW 2.6mph /  4.2km/h 14mph /  22.5km/h 56% 0.00in /  0mm 83 W/m2
15:29 42.5 °F /  5.8 °C 27.9 °F /  -2.3 °C 29.65in /  1003.9hPa WNW 9.1mph /  14.6km/h 17mph /  27.4km/h 56% 0.00in /  0mm 69 W/m2
15:34 42.3 °F /  5.7 °C 27.8 °F /  -2.3 °C 29.65in /  1003.9hPa WNW 6.6mph /  10.6km/h 17mph /  27.4km/h 56.1% 0.00in /  0mm 62 W/m2
15:39 42.2 °F /  5.7 °C 28.1 °F /  -2.2 °C 29.66in /  1004.3hPa WNW 6.9mph /  11.1km/h 15mph /  24.1km/h 57% 0.00in /  0mm 62 W/m2
15:44 42.1 °F /  5.6 °C 28.2 °F /  -2.1 °C 29.66in /  1004.3hPa WNW 5.1mph /  8.2km/h 22mph /  35.4km/h 57.5% 0.00in /  0mm 62 W/m2
15:49 42.1 °F /  5.6 °C 28.2 °F /  -2.1 °C 29.66in /  1004.3hPa WNW 5.7mph /  9.2km/h 22mph /  35.4km/h 57.6% 0.00in /  0mm 56 W/m2
15:54 42 °F /  5.6 °C 28.3 °F /  -2.1 °C 29.66in /  1004.3hPa WNW 6.4mph /  10.3km/h 22mph /  35.4km/h 58% 0.00in /  0mm 60 W/m2
15:59 41.9 °F /  5.5 °C 28.4 °F /  -2 °C 29.67in /  1004.6hPa WNW 6.7mph /  10.8km/h 22mph /  35.4km/h 58.4% 0.00in /  0mm 54 W/m2
16:04 41.8 °F /  5.4 °C 28.5 °F /  -1.9 °C 29.67in /  1004.6hPa NW 6.1mph /  9.8km/h 12mph /  19.3km/h 59% 0.00in /  0mm 47 W/m2
16:09 41.8 °F /  5.4 °C 28.8 °F /  -1.8 °C 29.67in /  1004.6hPa WNW 4.7mph /  7.6km/h 17mph /  27.4km/h 59.6% 0.00in /  0mm 39 W/m2
16:14 41.7 °F /  5.4 °C 28.9 °F /  -1.7 °C 29.67in /  1004.6hPa WNW 6mph /  9.7km/h 17mph /  27.4km/h 60% 0.00in /  0mm 28 W/m2
16:19 41.6 °F /  5.3 °C 28.7 °F /  -1.8 °C 29.68in /  1005hPa WNW 7mph /  11.3km/h 17mph /  27.4km/h 60% 0.00in /  0mm 21 W/m2
16:24 41.4 °F /  5.2 °C 28.7 °F /  -1.8 °C 29.68in /  1005hPa WNW 4.9mph /  7.9km/h 17mph /  27.4km/h 60.3% 0.00in /  0mm 18 W/m2
16:29 41.2 °F /  5.1 °C 28.8 °F /  -1.8 °C 29.68in /  1005hPa West 2mph /  3.2km/h 17mph /  27.4km/h 61% 0.00in /  0mm 14 W/m2
16:34 41 °F /  5 °C 28.8 °F /  -1.8 °C 29.68in /  1005hPa WNW 3.5mph /  5.6km/h 17mph /  27.4km/h 61.5% 0.00in /  0mm 11 W/m2
16:39 40.7 °F /  4.8 °C 28.7 °F /  -1.8 °C 29.69in /  1005.3hPa WNW 5.9mph /  9.5km/h 11mph /  17.7km/h 62% 0.00in /  0mm 9 W/m2
16:44 40.4 °F /  4.7 °C 28.8 °F /  -1.8 °C 29.69in /  1005.3hPa WNW 3.8mph /  6.1km/h 11mph /  17.7km/h 62.9% 0.00in /  0mm 7 W/m2
16:49 40.2 °F /  4.6 °C 28.9 °F /  -1.7 °C 29.69in /  1005.3hPa WNW 1.4mph /  2.3km/h 11mph /  17.7km/h 63.9% 0.00in /  0mm 5 W/m2
16:54 39.9 °F /  4.4 °C 29.1 °F /  -1.6 °C 29.69in /  1005.3hPa NW 2.5mph /  4km/h 11mph /  17.7km/h 65% 0.00in /  0mm 0 W/m2
16:59 39.6 °F /  4.2 °C 29.2 °F /  -1.6 °C 29.70in /  1005.6hPa WNW 3.1mph /  5km/h 11mph /  17.7km/h 66% 0.00in /  0mm 0 W/m2
17:04 39.2 °F /  4 °C 29.2 °F /  -1.6 °C 29.70in /  1005.6hPa WNW 4mph /  6.4km/h 11mph /  17.7km/h 67% 0.00in /  0mm 0 W/m2
17:09 39 °F /  3.9 °C 29 °F /  -1.7 °C 29.70in /  1005.6hPa West 1.6mph /  2.6km/h 9mph /  14.5km/h 67% 0.00in /  0mm 0 W/m2
17:14 38.7 °F /  3.7 °C 29.1 °F /  -1.6 °C 29.70in /  1005.6hPa WNW 2.1mph /  3.4km/h 9mph /  14.5km/h 67.9% 0.00in /  0mm 0 W/m2
17:19 38.5 °F /  3.6 °C 29 °F /  -1.7 °C 29.70in /  1005.6hPa West 2.6mph /  4.2km/h 9mph /  14.5km/h 68.2% 0.00in /  0mm 0 W/m2
17:24 38.3 °F /  3.5 °C 29 °F /  -1.7 °C 29.70in /  1005.6hPa West 2.3mph /  3.7km/h 9mph /  14.5km/h 69% 0.00in /  0mm 0 W/m2
17:29 38.1 °F /  3.4 °C 28.9 °F /  -1.7 °C 29.70in /  1005.6hPa West 2.1mph /  3.4km/h 9mph /  14.5km/h 69% 0.00in /  0mm 0 W/m2
17:34 37.9 °F /  3.3 °C 29 °F /  -1.7 °C 29.71in /  1006hPa West 2.6mph /  4.2km/h 9mph /  14.5km/h 69.8% 0.00in /  0mm 0 W/m2
17:39 37.8 °F /  3.2 °C 28.9 °F /  -1.7 °C 29.71in /  1006hPa West 1.6mph /  2.6km/h 12mph /  19.3km/h 70% 0.00in /  0mm 0 W/m2
17:44 37.7 °F /  3.2 °C 28.8 °F /  -1.8 °C 29.71in /  1006hPa WNW 3.1mph /  5km/h 12mph /  19.3km/h 70% 0.00in /  0mm 0 W/m2
17:49 37.6 °F /  3.1 °C 28.7 °F /  -1.8 °C 29.72in /  1006.3hPa WNW 3.5mph /  5.6km/h 12mph /  19.3km/h 70% 0.00in /  0mm 0 W/m2
17:54 37.5 °F /  3.1 °C 28.6 °F /  -1.9 °C 29.72in /  1006.3hPa WNW 5.3mph /  8.5km/h 12mph /  19.3km/h 70% 0.00in /  0mm 0 W/m2
17:59 37.5 °F /  3.1 °C 28.6 °F /  -1.9 °C 29.72in /  1006.3hPa WNW 7.7mph /  12.4km/h 17mph /  27.4km/h 70.1% 0.00in /  0mm 0 W/m2
18:04 37.6 °F /  3.1 °C 29.1 °F /  -1.6 °C 29.72in /  1006.3hPa WNW 6.2mph /  10km/h 17mph /  27.4km/h 71% 0.00in /  0mm 0 W/m2
18:09 37.6 °F /  3.1 °C 29.1 °F /  -1.6 °C 29.72in /  1006.3hPa NW 3.6mph /  5.8km/h 14mph /  22.5km/h 71% 0.00in /  0mm 0 W/m2
18:14 37.6 °F /  3.1 °C 29 °F /  -1.7 °C 29.73in /  1006.7hPa WNW 2.8mph /  4.5km/h 14mph /  22.5km/h 71% 0.00in /  0mm 0 W/m2
18:19 37.4 °F /  3 °C 29 °F /  -1.7 °C 29.73in /  1006.7hPa WNW 3.7mph /  6km/h 14mph /  22.5km/h 71.5% 0.00in /  0mm 0 W/m2
18:24 37.3 °F /  2.9 °C 29.1 °F /  -1.6 °C 29.74in /  1007hPa NW 2.4mph /  3.9km/h 14mph /  22.5km/h 72% 0.00in /  0mm 0 W/m2
18:29 37.2 °F /  2.9 °C 29.1 °F /  -1.6 °C 29.74in /  1007hPa NW 1.1mph /  1.8km/h 14mph /  22.5km/h 72.2% 0.00in /  0mm 0 W/m2
18:34 37.1 °F /  2.8 °C 29.2 °F /  -1.6 °C 29.74in /  1007hPa NNW 2mph /  3.2km/h 14mph /  22.5km/h 73% 0.00in /  0mm 0 W/m2
18:39 36.9 °F /  2.7 °C 29.2 °F /  -1.6 °C 29.74in /  1007hPa NNW 1.1mph /  1.8km/h 9mph /  14.5km/h 73.4% 0.00in /  0mm 0 W/m2
18:44 36.8 °F /  2.7 °C 29.3 °F /  -1.5 °C 29.74in /  1007hPa NNW 0.6mph /  1km/h 9mph /  14.5km/h 74% 0.00in /  0mm 0 W/m2
18:49 36.6 °F /  2.6 °C 29.2 °F /  -1.6 °C 29.75in /  1007.3hPa NNW 0.2mph /  0.3km/h 9mph /  14.5km/h 74% 0.00in /  0mm 0 W/m2
18:54 36.5 °F /  2.5 °C 29 °F /  -1.7 °C 29.75in /  1007.3hPa Calm   9mph /  14.5km/h 74% 0.00in /  0mm 0 W/m2
18:59 36.4 °F /  2.4 °C 29.2 °F /  -1.6 °C 29.75in /  1007.3hPa Calm   9mph /  14.5km/h 74.7% 0.00in /  0mm 0 W/m2
19:04 36.3 °F /  2.4 °C 29.1 °F /  -1.6 °C 29.75in /  1007.3hPa Calm   9mph /  14.5km/h 75% 0.00in /  0mm 0 W/m2
19:09 36.2 °F /  2.3 °C 29.2 °F /  -1.6 °C 29.76in /  1007.7hPa Calm     75.4% 0.00in /  0mm 0 W/m2
19:11 36.1 °F /  2.3 °C 29.3 °F /  -1.5 °C 29.76in /  1007.7hPa Calm     76% 0.00in /  0mm 0 W/m2
19:30 36 °F /  2.2 °C 29.8 °F /  -1.2 °C 29.76in /  1007.7hPa Calm   9mph /  14.5km/h 78% 0.00in /  0mm 0 W/m2
20:09 36.8 °F /  2.7 °C 29.8 °F /  -1.2 °C 29.78in /  1008.4hPa NW 2.5mph /  4km/h 9mph /  14.5km/h 75.6% 0.00in /  0mm 0 W/m2
20:14 36.7 °F /  2.6 °C 29.5 °F /  -1.4 °C 29.78in /  1008.4hPa NW 3.9mph /  6.3km/h 12mph /  19.3km/h 75% 0.00in /  0mm 0 W/m2
20:19 36.7 °F /  2.6 °C 29.5 °F /  -1.4 °C 29.78in /  1008.4hPa NW 4.9mph /  7.9km/h 17mph /  27.4km/h 75% 0.00in /  0mm 0 W/m2
20:24 36.6 °F /  2.6 °C 29.5 °F /  -1.4 °C 29.78in /  1008.4hPa WNW 5mph /  8km/h 17mph /  27.4km/h 75% 0.00in /  0mm 0 W/m2
20:29 36.6 °F /  2.6 °C 29.2 °F /  -1.6 °C 29.78in /  1008.4hPa NW 3.5mph /  5.6km/h 17mph /  27.4km/h 74.4% 0.00in /  0mm 0 W/m2
20:34 36.6 °F /  2.6 °C 29.1 °F /  -1.6 °C 29.79in /  1008.7hPa WNW 4.5mph /  7.2km/h 17mph /  27.4km/h 74% 0.00in /  0mm 0 W/m2
20:39 36.5 °F /  2.5 °C 28.7 °F /  -1.8 °C 29.79in /  1008.7hPa WNW 4.6mph /  7.4km/h 16mph /  25.7km/h 73.1% 0.00in /  0mm 0 W/m2
20:44 36.5 °F /  2.5 °C 28.5 °F /  -1.9 °C 29.79in /  1008.7hPa WNW 7mph /  11.3km/h 18mph /  29km/h 72.4% 0.00in /  0mm 0 W/m2
20:49 36.4 °F /  2.4 °C 28.2 °F /  -2.1 °C 29.79in /  1008.7hPa NW 2.8mph /  4.5km/h 18mph /  29km/h 71.8% 0.00in /  0mm 0 W/m2
20:54 36.4 °F /  2.4 °C 27.9 °F /  -2.3 °C 29.80in /  1009hPa WNW 4.6mph /  7.4km/h 18mph /  29km/h 70.9% 0.00in /  0mm 0 W/m2
20:59 36.3 °F /  2.4 °C 27.5 °F /  -2.5 °C 29.80in /  1009hPa NW 1.4mph /  2.3km/h 18mph /  29km/h 70% 0.00in /  0mm 0 W/m2
21:04 36.3 °F /  2.4 °C 27.4 °F /  -2.6 °C 29.80in /  1009hPa NW 4.3mph /  6.9km/h 18mph /  29km/h 70% 0.00in /  0mm 0 W/m2
21:09 36.2 °F /  2.3 °C 27 °F /  -2.8 °C 29.80in /  1009hPa NW 5.4mph /  8.7km/h 17mph /  27.4km/h 68.9% 0.00in /  0mm 0 W/m2
21:14 36.1 °F /  2.3 °C 26.6 °F /  -3 °C 29.80in /  1009hPa NW 2.4mph /  3.9km/h 17mph /  27.4km/h 68% 0.00in /  0mm 0 W/m2
21:19 36 °F /  2.2 °C 26.5 °F /  -3.1 °C 29.80in /  1009hPa NW 4mph /  6.4km/h 17mph /  27.4km/h 68% 0.00in /  0mm 0 W/m2
21:24 35.9 °F /  2.2 °C 26 °F /  -3.3 °C 29.80in /  1009hPa NNW 4mph /  6.4km/h 17mph /  27.4km/h 67% 0.00in /  0mm 0 W/m2
21:29 35.7 °F /  2.1 °C 25.8 °F /  -3.4 °C 29.80in /  1009hPa NW 0.9mph /  1.4km/h 17mph /  27.4km/h 67% 0.00in /  0mm 0 W/m2
21:34 35.6 °F /  2 °C 25.7 °F /  -3.5 °C 29.80in /  1009hPa NW 3.4mph /  5.5km/h 17mph /  27.4km/h 67% 0.00in /  0mm 0 W/m2
21:39 35.5 °F /  1.9 °C 25.6 °F /  -3.6 °C 29.80in /  1009hPa North 1.4mph /  2.3km/h 9mph /  14.5km/h 67% 0.00in /  0mm 0 W/m2
21:44 35.5 °F /  1.9 °C 25.7 °F /  -3.5 °C 29.81in /  1009.4hPa North 0.5mph /  0.8km/h 9mph /  14.5km/h 67.1% 0.00in /  0mm 0 W/m2
21:49 35.4 °F /  1.9 °C 25.7 °F /  -3.5 °C 29.81in /  1009.4hPa NW 1.9mph /  3.1km/h 9mph /  14.5km/h 67.2% 0.00in /  0mm 0 W/m2
21:54 35.5 °F /  1.9 °C 25.6 °F /  -3.6 °C 29.81in /  1009.4hPa NNW 1.2mph /  1.9km/h 9mph /  14.5km/h 67% 0.00in /  0mm 0 W/m2
21:59 35.5 °F /  1.9 °C 25.4 °F /  -3.7 °C 29.81in /  1009.4hPa NNW 1.9mph /  3.1km/h 9mph /  14.5km/h 66.4% 0.00in /  0mm 0 W/m2
22:04 35.5 °F /  1.9 °C 25.3 °F /  -3.7 °C 29.81in /  1009.4hPa NW 1.9mph /  3.1km/h 9mph /  14.5km/h 66.1% 0.00in /  0mm 0 W/m2
22:09 35.5 °F /  1.9 °C 25.3 °F /  -3.7 °C 29.81in /  1009.4hPa NW 2.2mph /  3.5km/h 7mph /  11.3km/h 66% 0.00in /  0mm 0 W/m2
22:14 35.5 °F /  1.9 °C 25.3 °F /  -3.7 °C 29.81in /  1009.4hPa NW 3.3mph /  5.3km/h 8mph /  12.9km/h 66% 0.00in /  0mm 0 W/m2
22:19 35.5 °F /  1.9 °C 25.3 °F /  -3.7 °C 29.82in /  1009.7hPa WNW 3.6mph /  5.8km/h 11mph /  17.7km/h 66% 0.00in /  0mm 0 W/m2
22:24 35.5 °F /  1.9 °C 25.2 °F /  -3.8 °C 29.82in /  1009.7hPa NW 3.4mph /  5.5km/h 11mph /  17.7km/h 65.7% 0.00in /  0mm 0 W/m2
22:29 35.5 °F /  1.9 °C 25.1 °F /  -3.8 °C 29.82in /  1009.7hPa NW 3.2mph /  5.1km/h 11mph /  17.7km/h 65.6% 0.00in /  0mm 0 W/m2
22:34 35.5 °F /  1.9 °C 24.9 °F /  -3.9 °C 29.82in /  1009.7hPa NW 2.2mph /  3.5km/h 11mph /  17.7km/h 65% 0.00in /  0mm 0 W/m2
22:39 35.4 °F /  1.9 °C 24.8 °F /  -4 °C 29.82in /  1009.7hPa NW 1.1mph /  1.8km/h 7mph /  11.3km/h 65% 0.00in /  0mm 0 W/m2
22:44 35.3 °F /  1.8 °C 24.8 °F /  -4 °C 29.82in /  1009.7hPa WNW 2.8mph /  4.5km/h 9mph /  14.5km/h 65.2% 0.00in /  0mm 0 W/m2
22:49 35.3 °F /  1.8 °C 24.9 °F /  -3.9 °C 29.82in /  1009.7hPa NW 0.6mph /  1km/h 9mph /  14.5km/h 65.5% 0.00in /  0mm 0 W/m2
22:54 35.2 °F /  1.8 °C 24.7 °F /  -4.1 °C 29.82in /  1009.7hPa NW 3mph /  4.8km/h 13mph /  20.9km/h 65% 0.00in /  0mm 0 W/m2
22:58 35.2 °F /  1.8 °C 24.5 °F /  -4.2 °C 29.83in /  1010hPa NW 5.1mph /  8.2km/h 13mph /  20.9km/h 64.8% 0.00in /  0mm 0 W/m2
23:04 35.2 °F /  1.8 °C 24.3 °F /  -4.3 °C 29.82in /  1009.7hPa WNW 3.8mph /  6.1km/h 6mph /  9.7km/h 64% 0.00in /  0mm 0 W/m2
23:09 35.2 °F /  1.8 °C 24.2 °F /  -4.3 °C 29.82in /  1009.7hPa WNW 3.5mph /  5.6km/h 9mph /  14.5km/h 64% 0.00in /  0mm 0 W/m2
23:14 35.1 °F /  1.7 °C 24.2 °F /  -4.3 °C 29.83in /  1010hPa WNW 2.8mph /  4.5km/h 10mph /  16.1km/h 64% 0.00in /  0mm 0 W/m2
23:19 35.1 °F /  1.7 °C 23.9 °F /  -4.5 °C 29.83in /  1010hPa WNW 5.5mph /  8.9km/h 11mph /  17.7km/h 63.3% 0.00in /  0mm 0 W/m2
23:24 35 °F /  1.7 °C 23.7 °F /  -4.6 °C 29.83in /  1010hPa WNW 4.7mph /  7.6km/h 11mph /  17.7km/h 63% 0.00in /  0mm 0 W/m2
23:29 35 °F /  1.7 °C 23.8 °F /  -4.6 °C 29.83in /  1010hPa WNW 6.3mph /  10.1km/h 15mph /  24.1km/h 63.4% 0.00in /  0mm 0 W/m2
23:34 34.9 °F /  1.6 °C 23.6 °F /  -4.7 °C 29.82in /  1009.7hPa NW 5mph /  8km/h 15mph /  24.1km/h 63% 0.00in /  0mm 0 W/m2
23:39 34.9 °F /  1.6 °C 23.6 °F /  -4.7 °C 29.83in /  1010hPa WNW 8.7mph /  14km/h 14mph /  22.5km/h 63% 0.00in /  0mm 0 W/m2
23:44 34.8 °F /  1.6 °C 23.5 °F /  -4.7 °C 29.83in /  1010hPa WNW 8.2mph /  13.2km/h 15mph /  24.1km/h 63% 0.00in /  0mm 0 W/m2
23:49 34.8 °F /  1.6 °C 23.1 °F /  -4.9 °C 29.83in /  1010hPa WNW 6.6mph /  10.6km/h 17mph /  27.4km/h 62% 0.00in /  0mm 0 W/m2
23:54 34.8 °F /  1.6 °C 23 °F /  -5 °C 29.83in /  1010hPa WNW 7.9mph /  12.7km/h 17mph /  27.4km/h 61.9% 0.00in /  0mm 0 W/m2
23:59 34.7 °F /  1.5 °C 22.6 °F /  -5.2 °C 29.82in /  1009.7hPa WNW 4.8mph /  7.7km/h 17mph /  27.4km/h 61% 0.00in /  0mm 0 W/m2
Hartford County Weather
Compliments of Weather Underground - 2 mb